Time;durP1;ratioP1;P1;durP2;ratioP2;P2;SDS_P1;SDS_P2;PMS_P1;PMS_P2;Temp;Humidity;BMP_temperature;BMP_pressure;BME280_temperature;BME280_humidity;BME280_pressure;Samples;Min_cycle;Max_cycle;Signal;HPM_P1;HPM_P2
2021/04/06 00:00:15;;;;;;;6.57;1.30;;;0.50;99.90;;;;;;5001887;28;20309;-53
2021/04/06 00:02:46;;;;;;;4.83;1.27;;;0.50;99.90;;;;;;5000772;28;20850;-53
2021/04/06 00:05:15;;;;;;;4.00;1.43;;;0.50;99.90;;;;;;4997667;28;20193;-52
2021/04/06 00:07:43;;;;;;;2.87;1.40;;;0.50;99.90;;;;;;4985089;28;20276;-47
2021/04/06 00:10:15;;;;;;;2.03;0.70;;;0.50;99.90;;;;;;4989090;28;20465;-55
2021/04/06 00:12:44;;;;;;;1.13;0.90;;;0.50;99.90;;;;;;4993996;28;20260;-49
2021/04/06 00:15:11;;;;;;;5.40;1.03;;;0.50;99.90;;;;;;4998202;28;20235;-51
2021/04/06 00:17:42;;;;;;;2.60;1.00;;;0.50;99.90;;;;;;4999986;28;20197;-50
2021/04/06 00:20:11;;;;;;;4.77;1.13;;;0.50;99.90;;;;;;5002485;28;20228;-53
2021/04/06 00:22:38;;;;;;;2.30;0.93;;;0.50;99.90;;;;;;4979306;28;20419;-51
2021/04/06 00:25:07;;;;;;;5.10;1.00;;;0.50;99.90;;;;;;4992404;28;20197;-52
2021/04/06 00:27:37;;;;;;;6.00;1.20;;;0.50;99.90;;;;;;4998620;28;20693;-51
2021/04/06 00:30:06;;;;;;;4.80;1.17;;;0.50;99.90;;;;;;5002443;28;20296;-49
2021/04/06 00:32:33;;;;;;;4.90;1.30;;;0.50;99.90;;;;;;4998277;28;20289;-53
2021/04/06 00:35:01;;;;;;;8.17;1.53;;;0.50;99.90;;;;;;5002848;28;20208;-53
2021/04/06 00:37:29;;;;;;;8.00;1.33;;;0.50;99.90;;;;;;4979062;28;20284;-51
2021/04/06 00:40:03;;;;;;;4.90;0.90;;;0.40;99.90;;;;;;4996733;28;20227;-56
2021/04/06 00:42:29;;;;;;;9.53;0.93;;;0.40;99.90;;;;;;4988885;28;20239;-56
2021/04/06 00:44:58;;;;;;;3.33;1.10;;;0.40;99.90;;;;;;5003249;28;20224;-56
2021/04/06 00:47:26;;;;;;;4.83;1.00;;;0.40;99.90;;;;;;4999076;28;20206;-50
2021/04/06 00:49:54;;;;;;;2.10;0.80;;;0.40;99.90;;;;;;5002085;28;20507;-52
2021/04/06 00:52:21;;;;;;;6.63;0.80;;;0.40;99.90;;;;;;4985919;28;20204;-53
2021/04/06 00:54:52;;;;;;;4.43;0.80;;;0.40;99.90;;;;;;4996512;28;20189;-50
2021/04/06 00:57:19;;;;;;;5.17;1.50;;;0.40;99.90;;;;;;4994043;28;20207;-48
2021/04/06 01:00:11;;;;;;;5.47;0.83;;;0.40;99.90;;;;;;5000589;28;20306;-53
2021/04/06 01:02:37;;;;;;;3.27;0.93;;;0.40;99.90;;;;;;5000268;28;20744;-51
2021/04/06 01:05:05;;;;;;;5.73;1.00;;;0.30;99.90;;;;;;5002981;28;20295;-54
2021/04/06 01:07:34;;;;;;;3.03;0.60;;;0.30;99.90;;;;;;4988480;28;20213;-56
2021/04/06 01:10:04;;;;;;;1.47;0.60;;;0.30;99.90;;;;;;5001544;28;20217;-53
2021/04/06 01:12:31;;;;;;;2.30;0.80;;;0.30;99.90;;;;;;4996405;28;20602;-54
2021/04/06 01:14:58;;;;;;;5.13;1.00;;;0.30;99.90;;;;;;5004314;28;20275;-52
2021/04/06 01:17:26;;;;;;;4.47;1.10;;;0.30;99.90;;;;;;4992465;28;20880;-53
2021/04/06 01:19:52;;;;;;;5.43;1.33;;;0.30;99.90;;;;;;5002668;28;20279;-51
2021/04/06 01:22:19;;;;;;;3.60;0.70;;;0.30;99.90;;;;;;5003970;28;20279;-51
2021/04/06 01:24:47;;;;;;;6.40;0.97;;;0.30;99.90;;;;;;4978178;28;20225;-50
2021/04/06 01:27:16;;;;;;;2.07;1.00;;;0.30;99.90;;;;;;4988776;28;20433;-48
2021/04/06 01:29:48;;;;;;;2.60;1.20;;;0.30;99.90;;;;;;5005410;28;20303;-49
2021/04/06 01:32:15;;;;;;;5.33;1.30;;;0.40;99.90;;;;;;5002911;28;20238;-52
2021/04/06 01:34:41;;;;;;;3.80;0.70;;;0.40;99.90;;;;;;5005736;28;20200;-47
2021/04/06 01:37:08;;;;;;;5.13;1.57;;;0.40;99.90;;;;;;5001162;28;20438;-46
2021/04/06 01:39:35;;;;;;;2.50;0.50;;;0.40;99.90;;;;;;4986202;28;20311;-47
2021/04/06 01:42:05;;;;;;;3.13;0.83;;;0.40;99.90;;;;;;4998551;28;20256;-52
2021/04/06 01:44:34;;;;;;;7.87;0.83;;;0.40;99.90;;;;;;4994666;28;20255;-48
2021/04/06 01:47:01;;;;;;;1.73;0.83;;;0.40;99.90;;;;;;5002135;28;20232;-51
2021/04/06 01:49:28;;;;;;;2.03;0.87;;;0.40;99.90;;;;;;5005076;28;20220;-54
2021/04/06 01:51:55;;;;;;;4.43;1.17;;;0.40;99.90;;;;;;5003475;28;20650;-50
2021/04/06 01:54:21;;;;;;;1.67;0.93;;;0.40;99.90;;;;;;4990172;28;20415;-53
2021/04/06 01:56:52;;;;;;;1.80;0.83;;;0.40;99.90;;;;;;5004952;28;20288;-52
2021/04/06 01:59:22;;;;;;;3.93;0.90;;;0.40;99.90;;;;;;4996583;28;20501;-51
2021/04/06 02:01:51;;;;;;;1.90;0.73;;;0.40;99.90;;;;;;5004180;28;20224;-52
2021/04/06 02:04:21;;;;;;;3.60;0.70;;;0.50;99.90;;;;;;5002586;28;20743;-47
2021/04/06 02:06:48;;;;;;;1.50;0.80;;;0.50;99.90;;;;;;5004160;28;20201;-51
2021/04/06 02:09:17;;;;;;;5.10;0.90;;;0.50;99.90;;;;;;5001537;28;20216;-47
2021/04/06 02:11:45;;;;;;;2.30;0.97;;;0.50;99.90;;;;;;4985282;28;20593;-48
2021/04/06 02:14:13;;;;;;;1.07;0.73;;;0.50;99.90;;;;;;4994679;28;20529;-51
2021/04/06 02:16:52;;;;;;;3.20;1.07;;;0.50;99.90;;;;;;5004900;28;20197;-46
2021/04/06 02:19:27;;;;;;;2.97;0.80;;;0.50;99.90;;;;;;5001343;28;20389;-47
2021/04/06 02:21:55;;;;;;;3.27;0.93;;;0.60;99.90;;;;;;5002854;28;20373;-54
2021/04/06 02:24:42;;;;;;;2.30;0.97;;;0.60;99.90;;;;;;5003014;28;20315;-50
2021/04/06 02:27:15;;;;;;;1.97;0.87;;;0.60;99.90;;;;;;4977977;28;20295;-46
2021/04/06 02:29:43;;;;;;;2.50;1.10;;;0.60;99.90;;;;;;4994126;28;21339;-49
2021/04/06 02:32:12;;;;;;;1.83;0.97;;;0.70;99.90;;;;;;5000353;28;20228;-46
2021/04/06 02:34:41;;;;;;;3.57;1.27;;;0.70;99.90;;;;;;5004393;28;20198;-56
2021/04/06 02:37:13;;;;;;;2.67;0.90;;;0.70;99.90;;;;;;4999106;28;20429;-53
2021/04/06 02:39:40;;;;;;;5.77;0.80;;;0.80;99.90;;;;;;5004362;28;20225;-53
2021/04/06 02:42:24;;;;;;;2.67;1.07;;;0.80;99.90;;;;;;4981615;28;20227;-52
2021/04/06 02:44:54;;;;;;;4.93;0.90;;;0.80;99.90;;;;;;4994103;28;20220;-50
2021/04/06 02:47:22;;;;;;;3.30;0.70;;;0.80;99.90;;;;;;4996236;28;20201;-50
2021/04/06 02:49:48;;;;;;;3.07;1.10;;;0.80;99.90;;;;;;4996759;28;20239;-54
2021/04/06 02:52:15;;;;;;;3.30;1.10;;;0.80;99.90;;;;;;4994568;28;20201;-49
2021/04/06 02:54:42;;;;;;;1.20;1.03;;;0.90;99.90;;;;;;5004034;28;20196;-48
2021/04/06 02:57:30;;;;;;;3.17;1.13;;;0.90;99.90;;;;;;4984348;28;20679;-48
2021/04/06 02:59:56;;;;;;;2.57;1.07;;;0.90;99.90;;;;;;4985604;28;20251;-54
2021/04/06 03:02:23;;;;;;;1.90;1.17;;;0.90;99.90;;;;;;4999291;28;20205;-52
2021/04/06 03:04:50;;;;;;;3.77;1.37;;;0.90;99.90;;;;;;5003750;28;20232;-53
2021/04/06 03:07:21;;;;;;;3.60;0.80;;;0.90;99.90;;;;;;5001827;28;20423;-51
2021/04/06 03:09:53;;;;;;;6.13;1.10;;;0.90;99.90;;;;;;5003936;28;20228;-48
2021/04/06 03:12:20;;;;;;;3.97;1.70;;;0.90;99.90;;;;;;4998758;28;20384;-48
2021/04/06 03:14:48;;;;;;;2.93;1.50;;;1.00;99.90;;;;;;4977907;28;20215;-53
2021/04/06 03:17:14;;;;;;;10.50;1.67;;;1.00;99.90;;;;;;4995447;28;20474;-48
2021/04/06 03:19:43;;;;;;;4.53;1.23;;;1.00;99.90;;;;;;5003387;28;20714;-47
2021/04/06 03:22:10;;;;;;;4.97;1.50;;;1.10;99.90;;;;;;4999239;28;20208;-50
2021/04/06 03:24:37;;;;;;;9.33;1.60;;;1.10;99.90;;;;;;5000579;28;20253;-49
2021/04/06 03:27:04;;;;;;;6.67;1.70;;;1.10;99.90;;;;;;4988891;28;20926;-47
2021/04/06 03:29:32;;;;;;;7.40;1.50;;;1.10;99.90;;;;;;4984376;28;20224;-47
2021/04/06 03:31:59;;;;;;;5.63;1.60;;;1.10;99.90;;;;;;4986283;28;20698;-48
2021/04/06 03:34:31;;;;;;;8.47;1.80;;;1.10;99.90;;;;;;4997339;28;20244;-49
2021/04/06 03:36:58;;;;;;;4.40;1.90;;;1.10;99.90;;;;;;4998913;28;20337;-51
2021/04/06 03:39:25;;;;;;;7.87;1.90;;;1.10;99.90;;;;;;5002958;28;20242;-54
2021/04/06 03:41:52;;;;;;;9.67;2.23;;;1.10;99.90;;;;;;4999232;28;20205;-49
2021/04/06 03:44:27;;;;;;;9.43;2.13;;;1.10;99.90;;;;;;4987803;28;20213;-47
2021/04/06 03:46:57;;;;;;;8.63;2.67;;;1.10;99.90;;;;;;4986041;28;20912;-52
2021/04/06 03:49:26;;;;;;;4.97;2.40;;;1.10;99.90;;;;;;5001420;28;20226;-53
2021/04/06 03:51:53;;;;;;;3.10;1.97;;;1.10;99.90;;;;;;4999467;28;20246;-52
2021/04/06 03:54:31;;;;;;;4.20;3.20;;;1.10;99.90;;;;;;5003173;28;20226;-51
2021/04/06 03:56:57;;;;;;;13.93;3.53;;;1.10;99.90;;;;;;4997877;28;20219;-48
2021/04/06 03:59:27;;;;;;;5.00;2.73;;;1.00;99.90;;;;;;4994580;28;20642;-49
2021/04/06 04:01:53;;;;;;;3.80;2.47;;;1.00;99.90;;;;;;4974096;28;20385;-47
2021/04/06 04:04:20;;;;;;;8.77;2.97;;;1.00;99.90;;;;;;4988195;28;20724;-53
2021/04/06 04:06:46;;;;;;;10.93;3.27;;;1.00;99.90;;;;;;4996445;28;20212;-52
2021/04/06 04:09:12;;;;;;;10.17;2.43;;;1.00;99.90;;;;;;5002971;28;20292;-54
2021/04/06 04:11:40;;;;;;;5.00;2.20;;;1.00;99.90;;;;;;5002608;28;20289;-50
2021/04/06 04:14:06;;;;;;;6.07;2.23;;;1.00;99.90;;;;;;5001073;28;20381;-49
2021/04/06 04:16:34;;;;;;;4.47;2.40;;;1.00;99.90;;;;;;4987744;28;20658;-48
2021/04/06 04:19:00;;;;;;;6.60;2.20;;;1.00;99.90;;;;;;4989275;28;20214;-51
2021/04/06 04:21:26;;;;;;;6.13;1.93;;;1.00;99.90;;;;;;5003375;28;20245;-52
2021/04/06 04:23:53;;;;;;;4.50;2.10;;;1.10;99.90;;;;;;4993259;28;20214;-56
2021/04/06 04:26:19;;;;;;;7.23;2.47;;;1.10;99.90;;;;;;5000570;28;20194;-48
2021/04/06 04:28:46;;;;;;;10.50;2.43;;;1.10;99.90;;;;;;4993873;28;20203;-55
2021/04/06 04:31:14;;;;;;;4.00;2.27;;;1.10;99.90;;;;;;4984524;28;20269;-48
2021/04/06 04:33:40;;;;;;;2.70;1.70;;;1.10;99.90;;;;;;4997718;28;20607;-53
2021/04/06 04:36:07;;;;;;;10.33;2.30;;;1.10;99.90;;;;;;4981220;28;20450;-51
2021/04/06 04:38:33;;;;;;;7.33;2.40;;;1.10;99.90;;;;;;4983492;28;20705;-50
2021/04/06 04:40:59;;;;;;;10.97;2.80;;;1.00;99.90;;;;;;4998160;28;20216;-53
2021/04/06 04:43:25;;;;;;;6.50;2.73;;;1.10;99.90;;;;;;4988231;28;20217;-48
2021/04/06 04:45:52;;;;;;;7.47;2.73;;;1.10;99.90;;;;;;5007022;28;20201;-49
2021/04/06 04:48:19;;;;;;;11.60;3.33;;;1.00;99.90;;;;;;4979060;28;20200;-51
2021/04/06 04:50:45;;;;;;;4.27;2.87;;;1.00;99.90;;;;;;4997597;28;20635;-47
2021/04/06 04:53:11;;;;;;;8.60;2.57;;;1.00;99.90;;;;;;4999347;28;20208;-51
2021/04/06 04:55:38;;;;;;;7.30;2.63;;;1.00;99.90;;;;;;5003795;28;20204;-50
2021/04/06 04:58:04;;;;;;;6.50;3.00;;;1.10;99.90;;;;;;4994904;28;20215;-49
2021/04/06 05:00:30;;;;;;;8.57;2.40;;;1.10;99.90;;;;;;4997270;28;20218;-49
2021/04/06 05:02:58;;;;;;;7.63;2.37;;;1.10;99.90;;;;;;4987868;28;20284;-47
2021/04/06 05:05:24;;;;;;;8.47;2.43;;;1.10;99.90;;;;;;4992582;28;20311;-51
2021/04/06 05:07:50;;;;;;;4.70;1.57;;;1.10;99.90;;;;;;4998718;28;20198;-47
2021/04/06 05:10:16;;;;;;;6.67;2.23;;;1.10;99.90;;;;;;5002742;28;20230;-55
2021/04/06 05:12:45;;;;;;;7.27;2.13;;;1.20;99.90;;;;;;4999237;28;20262;-54
2021/04/06 05:15:12;;;;;;;6.57;1.87;;;1.20;99.90;;;;;;5000620;28;20292;-48
2021/04/06 05:17:38;;;;;;;12.40;2.63;;;1.20;99.90;;;;;;4990252;28;20236;-53
2021/04/06 05:20:07;;;;;;;7.13;1.97;;;1.20;99.90;;;;;;5000186;28;20232;-51
2021/04/06 05:22:34;;;;;;;9.50;1.90;;;1.20;99.90;;;;;;4994365;28;20678;-53
2021/04/06 05:25:00;;;;;;;8.53;2.07;;;1.20;99.90;;;;;;5006075;28;20231;-53
2021/04/06 05:27:26;;;;;;;7.07;2.10;;;1.20;99.90;;;;;;4994984;28;20634;-50
2021/04/06 05:29:52;;;;;;;11.13;2.90;;;1.20;99.90;;;;;;4992891;28;20229;-49
2021/04/06 05:32:19;;;;;;;6.57;2.10;;;1.30;99.90;;;;;;4998033;28;20208;-50
2021/04/06 05:34:45;;;;;;;9.27;2.13;;;1.30;99.90;;;;;;4986430;28;20208;-53
2021/04/06 05:37:12;;;;;;;9.17;2.20;;;1.30;99.90;;;;;;4994777;28;20292;-52
2021/04/06 05:39:38;;;;;;;11.47;2.03;;;1.40;99.90;;;;;;4998399;28;20238;-47
2021/04/06 05:42:04;;;;;;;4.43;1.87;;;1.40;99.90;;;;;;4999172;28;20333;-54
2021/04/06 05:44:31;;;;;;;12.30;1.90;;;1.40;99.90;;;;;;4993180;28;20246;-51
2021/04/06 05:47:00;;;;;;;10.57;2.07;;;1.40;99.90;;;;;;4998905;28;20197;-50
2021/04/06 05:49:29;;;;;;;10.20;3.13;;;1.50;99.90;;;;;;4984364;28;20226;-50
2021/04/06 05:51:55;;;;;;;6.40;1.70;;;1.50;99.90;;;;;;5004361;28;20207;-51
2021/04/06 05:54:23;;;;;;;11.37;2.17;;;1.60;99.90;;;;;;4991333;28;20209;-53
2021/04/06 05:56:50;;;;;;;12.13;2.50;;;1.70;99.90;;;;;;5005121;28;20209;-52
2021/04/06 05:59:16;;;;;;;8.03;1.97;;;1.80;99.90;;;;;;4998216;28;20768;-52
2021/04/06 06:01:44;;;;;;;13.20;3.10;;;1.80;99.90;;;;;;5003168;28;20364;-51
2021/04/06 06:04:12;;;;;;;14.17;2.77;;;1.80;99.90;;;;;;4996556;28;20239;-51
2021/04/06 06:06:39;;;;;;;10.97;1.77;;;1.90;99.90;;;;;;4995347;28;20208;-57
2021/04/06 06:09:08;;;;;;;10.93;2.00;;;1.90;99.90;;;;;;4992156;28;20227;-50
2021/04/06 06:11:55;;;;;;;7.30;1.60;;;2.00;99.90;;;;;;5002547;28;20206;-51
2021/04/06 06:14:26;;;;;;;9.83;2.10;;;2.10;99.90;;;;;;5000453;28;20783;-51
2021/04/06 06:16:53;;;;;;;7.70;1.70;;;2.20;99.90;;;;;;5000091;28;20278;-50
2021/04/06 06:19:19;;;;;;;4.37;1.60;;;2.40;99.90;;;;;;4990339;28;20234;-50
2021/04/06 06:21:47;;;;;;;6.87;2.10;;;2.60;99.90;;;;;;5001197;28;20191;-56
2021/04/06 06:24:24;;;;;;;10.00;1.87;;;2.80;99.90;;;;;;4994303;28;20302;-50
2021/04/06 06:26:51;;;;;;;7.57;1.10;;;2.90;99.90;;;;;;4993043;28;20205;-51
2021/04/06 06:29:20;;;;;;;7.17;1.00;;;2.70;99.90;;;;;;4994569;28;20640;-51
2021/04/06 06:31:48;;;;;;;5.53;1.33;;;2.30;99.90;;;;;;4996881;28;20217;-52
2021/04/06 06:34:38;;;;;;;3.17;0.87;;;2.10;99.90;;;;;;5000694;28;20229;-49
2021/04/06 06:37:07;;;;;;;3.33;0.73;;;1.90;99.90;;;;;;4987008;28;20211;-50
2021/04/06 06:39:34;;;;;;;5.10;1.17;;;1.70;99.90;;;;;;4996143;28;20815;-47
2021/04/06 06:42:04;;;;;;;6.47;1.17;;;1.70;99.90;;;;;;4997607;28;20265;-50
2021/04/06 06:44:31;;;;;;;5.53;1.27;;;1.70;99.90;;;;;;4999521;28;20792;-49
2021/04/06 06:47:20;;;;;;;3.87;1.10;;;1.70;99.90;;;;;;5004802;28;20204;-48
2021/04/06 06:49:46;;;;;;;3.07;0.93;;;1.60;99.90;;;;;;4997470;28;20237;-50
2021/04/06 06:52:30;;;;;;;3.73;1.20;;;1.60;99.90;;;;;;4987975;28;20208;-52
2021/04/06 06:54:59;;;;;;;4.23;1.03;;;1.80;99.90;;;;;;4999342;28;20198;-50
2021/04/06 06:57:34;;;;;;;4.60;2.13;;;1.80;99.90;;;;;;4995844;28;20461;-49
2021/04/06 07:00:10;;;;;;;7.07;0.90;;;2.00;99.90;;;;;;4993457;28;20227;-53
2021/04/06 07:02:37;;;;;;;5.23;0.80;;;2.10;99.90;;;;;;5001047;28;20707;-46
2021/04/06 07:05:21;;;;;;;2.27;0.90;;;2.20;99.90;;;;;;4989306;28;20224;-53
2021/04/06 07:08:00;;;;;;;7.27;0.80;;;2.20;99.90;;;;;;4998454;28;20234;-51
2021/04/06 07:10:28;;;;;;;1.87;0.90;;;2.30;99.90;;;;;;4991251;28;20252;-46
2021/04/06 07:13:10;;;;;;;5.27;1.33;;;2.40;99.90;;;;;;4999001;28;20190;-47
2021/04/06 07:15:38;;;;;;;6.53;1.40;;;2.60;99.90;;;;;;4995299;28;20184;-49
2021/04/06 07:18:08;;;;;;;5.67;1.57;;;2.70;99.90;;;;;;5001382;28;20229;-56
2021/04/06 07:20:39;;;;;;;2.47;1.20;;;2.80;99.90;;;;;;4993036;28;21136;-47
2021/04/06 07:23:12;;;;;;;6.53;1.60;;;2.80;99.90;;;;;;4980635;28;20208;-54
2021/04/06 07:25:41;;;;;;;13.37;1.83;;;2.70;99.90;;;;;;4997717;28;20280;-51
2021/04/06 07:28:09;;;;;;;4.97;1.13;;;2.50;99.90;;;;;;4993666;28;20687;-52
2021/04/06 07:30:37;;;;;;;8.37;1.73;;;2.40;99.90;;;;;;4990537;28;20223;-50
2021/04/06 07:33:05;;;;;;;5.30;2.07;;;2.20;99.90;;;;;;4997408;28;20634;-51
2021/04/06 07:35:31;;;;;;;7.97;1.47;;;2.10;99.90;;;;;;4990708;28;20207;-47
2021/04/06 07:37:57;;;;;;;9.10;1.93;;;2.10;99.90;;;;;;4977262;28;20297;-48
2021/04/06 07:40:25;;;;;;;7.70;1.43;;;2.00;99.90;;;;;;4984644;28;20216;-49
2021/04/06 07:42:52;;;;;;;6.60;1.70;;;2.10;99.90;;;;;;4992348;28;20215;-47
2021/04/06 07:45:39;;;;;;;4.83;1.63;;;2.00;99.90;;;;;;4999780;28;20295;-52
2021/04/06 07:48:06;;;;;;;7.47;1.77;;;2.10;99.90;;;;;;4996770;28;20200;-49
2021/04/06 07:50:39;;;;;;;3.93;1.33;;;2.10;99.90;;;;;;5004283;28;20383;-54
2021/04/06 07:53:26;;;;;;;11.33;1.90;;;2.10;99.90;;;;;;4988254;28;20696;-51
2021/04/06 07:55:53;;;;;;;6.00;1.80;;;2.10;99.90;;;;;;5001633;28;20200;-51
2021/04/06 07:58:46;;;;;;;9.03;1.40;;;2.10;99.90;;;;;;4986208;28;20205;-56
2021/04/06 08:01:17;;;;;;;10.33;1.77;;;2.20;99.90;;;;;;4996428;28;20281;-52
2021/04/06 08:04:06;;;;;;;5.57;2.13;;;2.20;99.90;;;;;;4995480;28;20204;-47
2021/04/06 08:06:45;;;;;;;4.17;1.47;;;2.20;99.90;;;;;;4990333;28;20299;-46
2021/04/06 08:09:45;;;;;;;6.70;1.87;;;2.20;99.90;;;;;;4981284;28;20260;-51
2021/04/06 08:12:13;;;;;;;4.70;1.30;;;2.10;99.90;;;;;;4984926;28;20687;-52
2021/04/06 08:14:41;;;;;;;1.53;0.63;;;1.70;99.90;;;;;;5004153;28;20207;-50
2021/04/06 08:17:53;;;;;;;3.07;0.90;;;1.50;99.90;;;;;;4997507;28;20209;-51
2021/04/06 08:20:40;;;;;;;5.07;1.00;;;1.30;99.90;;;;;;4999386;28;20217;-50
2021/04/06 08:23:08;;;;;;;3.70;0.93;;;1.30;99.90;;;;;;4994424;28;20200;-51
2021/04/06 08:25:40;;;;;;;7.27;1.47;;;1.20;99.90;;;;;;4987127;28;20222;-53
2021/04/06 08:28:31;;;;;;;4.07;1.13;;;1.30;99.90;;;;;;4992500;28;20672;-48
2021/04/06 08:31:17;;;;;;;6.87;1.30;;;1.30;99.90;;;;;;4995382;28;20316;-49
2021/04/06 08:33:43;;;;;;;6.70;1.13;;;1.40;99.90;;;;;;4999694;28;20201;-53
2021/04/06 08:36:11;;;;;;;5.10;1.10;;;1.50;99.90;;;;;;4996684;28;20745;-49
2021/04/06 08:38:44;;;;;;;3.17;1.30;;;1.50;99.90;;;;;;4993980;28;20213;-49
2021/04/06 08:41:13;;;;;;;5.17;1.30;;;1.70;99.90;;;;;;4980977;28;20209;-52
2021/04/06 08:43:43;;;;;;;4.13;1.10;;;1.80;99.90;;;;;;5007404;28;20273;-54
2021/04/06 08:46:12;;;;;;;5.73;1.30;;;2.00;99.90;;;;;;4999001;28;20213;-50
2021/04/06 08:48:51;;;;;;;4.70;1.47;;;2.10;99.90;;;;;;5001603;28;20337;-53
2021/04/06 08:51:20;;;;;;;3.87;1.20;;;2.20;99.90;;;;;;4996675;28;20764;-50
2021/04/06 08:53:47;;;;;;;3.03;1.00;;;2.40;99.90;;;;;;4993325;28;20255;-51
2021/04/06 08:56:15;;;;;;;7.43;1.47;;;2.50;99.90;;;;;;4982058;28;20580;-50
2021/04/06 08:58:42;;;;;;;5.20;0.90;;;2.60;99.90;;;;;;4992227;28;20618;-51
2021/04/06 09:01:08;;;;;;;7.00;1.00;;;2.90;99.90;;;;;;5001480;28;20218;-50
2021/04/06 09:03:35;;;;;;;6.73;1.23;;;3.00;99.90;;;;;;5000575;28;20198;-50
2021/04/06 09:06:08;;;;;;;5.97;1.23;;;3.20;99.90;;;;;;5003854;28;20283;-49
2021/04/06 09:08:52;;;;;;;6.10;1.17;;;3.30;99.90;;;;;;5002979;28;20193;-50
2021/04/06 09:11:20;;;;;;;3.93;1.10;;;3.50;99.90;;;;;;4988601;28;20228;-50
2021/04/06 09:13:47;;;;;;;5.83;1.13;;;3.60;99.90;;;;;;4978295;28;20207;-48
2021/04/06 09:16:13;;;;;;;7.37;1.20;;;3.60;99.90;;;;;;4994312;28;20209;-52
2021/04/06 09:18:40;;;;;;;4.50;0.80;;;3.60;99.90;;;;;;4995929;28;20712;-51
2021/04/06 09:21:08;;;;;;;3.83;0.70;;;3.50;99.90;;;;;;4992580;28;20242;-53
2021/04/06 09:23:37;;;;;;;4.90;1.00;;;3.40;99.90;;;;;;4994265;28;20222;-54
2021/04/06 09:26:05;;;;;;;2.57;0.70;;;3.20;99.90;;;;;;4984235;28;20527;-49
2021/04/06 09:28:32;;;;;;;2.50;0.70;;;3.00;99.90;;;;;;4975928;28;20236;-51
2021/04/06 09:30:58;;;;;;;2.37;0.80;;;2.90;99.90;;;;;;5002886;28;20241;-51
2021/04/06 09:33:25;;;;;;;2.43;1.10;;;2.80;99.90;;;;;;5002151;28;20258;-51
2021/04/06 09:35:53;;;;;;;5.23;1.10;;;2.80;99.90;;;;;;4997267;28;20437;-55
2021/04/06 09:38:21;;;;;;;3.30;0.97;;;2.80;99.90;;;;;;5000230;28;20196;-53
2021/04/06 09:40:47;;;;;;;2.17;0.67;;;2.80;99.90;;;;;;4989505;28;20403;-50
2021/04/06 09:43:15;;;;;;;4.20;0.97;;;2.90;99.90;;;;;;5000856;28;20223;-52
2021/04/06 09:45:41;;;;;;;1.43;0.60;;;3.10;99.90;;;;;;4980170;28;20537;-51
2021/04/06 09:48:12;;;;;;;4.50;1.00;;;3.20;99.90;;;;;;4999436;28;20727;-51
2021/04/06 09:50:40;;;;;;;7.57;0.93;;;3.40;99.90;;;;;;5000474;28;20624;-47
2021/04/06 09:53:17;;;;;;;6.63;1.10;;;3.60;99.90;;;;;;5002919;28;20208;-48
2021/04/06 09:55:47;;;;;;;2.07;0.87;;;3.90;99.90;;;;;;4994491;28;20201;-48
2021/04/06 09:58:13;;;;;;;2.97;0.97;;;4.10;99.90;;;;;;4996915;28;20684;-46
2021/04/06 10:00:44;;;;;;;3.17;0.90;;;4.30;99.90;;;;;;4977896;28;20212;-48
2021/04/06 10:03:13;;;;;;;4.30;1.00;;;4.30;99.90;;;;;;5000132;28;20200;-53
2021/04/06 10:05:42;;;;;;;7.37;0.80;;;4.20;99.90;;;;;;4991858;28;20212;-54
2021/04/06 10:08:09;;;;;;;2.83;0.53;;;4.00;99.90;;;;;;4995562;28;20203;-50
2021/04/06 10:10:36;;;;;;;4.27;0.57;;;3.80;99.90;;;;;;4997381;28;20630;-53
2021/04/06 10:13:03;;;;;;;1.23;0.53;;;3.70;99.90;;;;;;4996962;28;20299;-48
2021/04/06 10:15:32;;;;;;;4.43;0.53;;;3.60;99.90;;;;;;4980695;28;20657;-55
2021/04/06 10:18:09;;;;;;;2.73;0.57;;;3.70;99.90;;;;;;4999973;28;20813;-54
2021/04/06 10:20:40;;;;;;;2.33;0.40;;;3.70;99.90;;;;;;5003825;28;20302;-53
2021/04/06 10:23:07;;;;;;;1.00;0.67;;;3.80;99.90;;;;;;5006285;28;20238;-52
2021/04/06 10:25:36;;;;;;;2.00;0.40;;;3.90;99.90;;;;;;5003983;28;20230;-53
2021/04/06 10:28:04;;;;;;;3.33;0.70;;;3.90;99.90;;;;;;4998994;28;20204;-52
2021/04/06 10:30:37;;;;;;;2.10;0.70;;;4.00;99.90;;;;;;4986735;28;20636;-54
2021/04/06 10:33:06;;;;;;;2.20;0.73;;;4.10;99.90;;;;;;4998876;28;20212;-52
2021/04/06 10:35:37;;;;;;;2.67;0.80;;;4.20;99.90;;;;;;4996238;28;20201;-49
2021/04/06 10:38:05;;;;;;;3.67;0.70;;;4.30;99.90;;;;;;4989408;28;20225;-51
2021/04/06 10:40:35;;;;;;;4.63;0.87;;;4.50;99.90;;;;;;4999994;28;20224;-54
2021/04/06 10:43:05;;;;;;;4.03;0.90;;;4.60;99.90;;;;;;4994518;28;20220;-51
2021/04/06 10:45:33;;;;;;;7.53;1.57;;;4.70;99.90;;;;;;4980741;28;20788;-50
2021/04/06 10:48:08;;;;;;;9.93;1.07;;;4.70;99.90;;;;;;4994093;28;20215;-53
2021/04/06 10:50:38;;;;;;;4.07;1.30;;;4.90;99.90;;;;;;4997069;28;20556;-52
2021/04/06 10:53:25;;;;;;;4.73;1.47;;;4.90;99.90;;;;;;4997054;28;20200;-54
2021/04/06 10:55:55;;;;;;;7.60;1.30;;;4.90;99.90;;;;;;4994832;28;20425;-51
2021/04/06 10:58:28;;;;;;;6.40;1.00;;;4.50;99.90;;;;;;4987056;28;20208;-51
2021/04/06 11:01:04;;;;;;;4.13;0.90;;;4.00;99.90;;;;;;4974709;28;20235;-50
2021/04/06 11:03:39;;;;;;;6.63;1.00;;;3.60;99.90;;;;;;5002114;28;20258;-53
2021/04/06 11:06:11;;;;;;;3.67;0.80;;;3.30;99.90;;;;;;5001017;28;20683;-55
2021/04/06 11:08:40;;;;;;;5.67;0.93;;;3.20;99.90;;;;;;4996880;28;20418;-51
2021/04/06 11:11:16;;;;;;;4.40;0.90;;;3.00;99.90;;;;;;4990090;28;20225;-50
2021/04/06 11:13:42;;;;;;;2.17;1.20;;;2.90;99.90;;;;;;4991290;28;20207;-52
2021/04/06 11:16:08;;;;;;;5.27;1.13;;;2.90;99.90;;;;;;4992401;28;20204;-46
2021/04/06 11:18:34;;;;;;;7.00;1.53;;;2.80;99.90;;;;;;4987788;28;20799;-55
2021/04/06 11:21:01;;;;;;;5.47;1.00;;;2.80;99.90;;;;;;4996500;28;20735;-51
2021/04/06 11:23:28;;;;;;;4.07;1.20;;;2.80;99.90;;;;;;4996154;28;20470;-50
2021/04/06 11:25:54;;;;;;;3.47;0.70;;;2.80;99.90;;;;;;4991388;28;20814;-48
2021/04/06 11:28:20;;;;;;;4.67;1.20;;;2.80;99.90;;;;;;4988790;28;20357;-50
2021/04/06 11:30:46;;;;;;;4.20;0.83;;;2.90;99.90;;;;;;4998843;28;20239;-52
2021/04/06 11:33:12;;;;;;;4.60;0.83;;;3.00;99.90;;;;;;4978899;28;20216;-52
2021/04/06 11:35:39;;;;;;;2.40;0.93;;;3.20;99.90;;;;;;4988592;28;20201;-50
2021/04/06 11:38:05;;;;;;;5.30;1.00;;;3.40;99.90;;;;;;4994749;28;20318;-48
2021/04/06 11:40:32;;;;;;;4.97;0.90;;;3.70;99.90;;;;;;4996437;28;20436;-49
2021/04/06 11:42:58;;;;;;;2.73;0.77;;;4.00;99.90;;;;;;4998058;28;20204;-51
2021/04/06 11:45:25;;;;;;;4.37;1.87;;;4.20;99.90;;;;;;4994505;28;20732;-49
2021/04/06 11:47:52;;;;;;;7.37;0.93;;;4.50;99.90;;;;;;4981566;28;20216;-47
2021/04/06 11:50:19;;;;;;;3.60;1.10;;;4.80;99.90;;;;;;4987235;28;20712;-47
2021/04/06 11:52:45;;;;;;;3.77;1.07;;;5.10;99.90;;;;;;4992238;28;20205;-50
2021/04/06 11:55:12;;;;;;;5.70;1.50;;;5.30;99.90;;;;;;4995128;28;20212;-51
2021/04/06 11:57:40;;;;;;;3.70;1.20;;;5.30;99.90;;;;;;5002220;28;20193;-48
2021/04/06 12:00:07;;;;;;;4.27;1.13;;;5.30;99.90;;;;;;4992230;28;20228;-48
2021/04/06 12:02:34;;;;;;;4.50;0.80;;;5.30;99.90;;;;;;4995218;28;20311;-49
2021/04/06 12:05:01;;;;;;;6.07;1.13;;;4.90;99.90;;;;;;4975854;28;20720;-51
2021/04/06 12:07:27;;;;;;;3.67;1.00;;;4.60;99.90;;;;;;4990463;28;20302;-53
2021/04/06 12:09:53;;;;;;;2.23;0.73;;;4.60;99.90;;;;;;4996441;28;20821;-50
2021/04/06 12:12:20;;;;;;;2.70;0.63;;;4.40;99.90;;;;;;5001050;28;20429;-52
2021/04/06 12:14:49;;;;;;;5.00;1.10;;;4.40;99.90;;;;;;4996968;28;20201;-53
2021/04/06 12:17:15;;;;;;;6.03;0.73;;;4.50;99.90;;;;;;4991186;28;20205;-48
2021/04/06 12:19:41;;;;;;;4.33;0.50;;;4.60;99.90;;;;;;4977966;28;20228;-48
2021/04/06 12:22:08;;;;;;;3.90;0.90;;;4.70;99.90;;;;;;4991143;28;20213;-53
2021/04/06 12:24:34;;;;;;;2.73;0.50;;;4.70;99.90;;;;;;4994721;28;20418;-47
2021/04/06 12:27:00;;;;;;;3.77;0.90;;;4.50;99.90;;;;;;5002000;28;20196;-53
2021/04/06 12:29:26;;;;;;;5.33;0.97;;;4.30;99.90;;;;;;4995399;28;20232;-51
2021/04/06 12:31:53;;;;;;;2.43;0.77;;;4.30;99.90;;;;;;4998989;28;20209;-51
2021/04/06 12:34:19;;;;;;;0.87;0.50;;;4.30;99.90;;;;;;4980415;28;20227;-52
2021/04/06 12:36:45;;;;;;;0.87;0.60;;;4.40;99.90;;;;;;4996480;28;20208;-51
2021/04/06 12:39:12;;;;;;;2.13;0.50;;;4.40;99.90;;;;;;4995655;28;20631;-51
2021/04/06 12:41:38;;;;;;;3.80;0.80;;;4.50;99.90;;;;;;4999248;28;20280;-49
2021/04/06 12:44:04;;;;;;;3.67;0.70;;;4.50;99.90;;;;;;4996583;28;20196;-50
2021/04/06 12:46:31;;;;;;;3.90;0.87;;;4.50;99.90;;;;;;5009762;28;20437;-50
2021/04/06 12:48:58;;;;;;;3.27;0.70;;;4.50;99.90;;;;;;4998570;28;20211;-52
2021/04/06 12:51:24;;;;;;;2.33;0.30;;;4.30;99.90;;;;;;4976267;28;20353;-51
2021/04/06 12:53:51;;;;;;;3.47;0.80;;;3.80;99.90;;;;;;5018181;28;20204;-51
2021/04/06 12:56:17;;;;;;;3.10;1.33;;;3.50;99.90;;;;;;4993913;28;20364;-49
2021/04/06 12:58:44;;;;;;;2.00;0.80;;;3.50;99.90;;;;;;5001689;28;20234;-50
2021/04/06 13:01:10;;;;;;;2.80;0.83;;;3.70;99.90;;;;;;4991603;28;20232;-51
2021/04/06 13:03:36;;;;;;;4.47;0.70;;;3.90;99.90;;;;;;4999327;28;20215;-46
2021/04/06 13:06:04;;;;;;;2.67;0.70;;;4.00;99.90;;;;;;4999052;28;20288;-49